Time;durP1;ratioP1;P1;durP2;ratioP2;P2;SDS_P1;SDS_P2;PMS_P1;PMS_P2;Temp;Humidity;BMP_temperature;BMP_pressure;BME280_temperature;BME280_humidity;BME280_pressure;Samples;Min_cycle;Max_cycle;Signal;HPM_P1;HPM_P2
2023/03/30 00:00:56;;;;;;;8.57;5.10;;;;;;;;;;6248216;22;20021;-93
2023/03/30 00:03:23;;;;;;;7.88;5.07;;;;;;;;;;6248346;22;20004;-93
2023/03/30 00:05:55;;;;;;;10.27;5.72;;;;;;;;;;6248808;22;20101;-94
2023/03/30 00:08:28;;;;;;;10.02;5.47;;;;;;;;;;6248734;22;20003;-93
2023/03/30 00:10:54;;;;;;;;;;;;;;;;;;6248539;22;20083;-94
2023/03/30 00:13:20;;;;;;;9.63;4.68;;;;;;;;;;6249012;22;19949;-92
2023/03/30 00:15:47;;;;;;;8.60;5.38;;;;;;;;;;6248535;22;20016;-94
2023/03/30 00:18:13;;;;;;;11.52;6.70;;;;;;;;;;6243373;23;20003;-92
2023/03/30 00:20:41;;;;;;;7.70;5.40;;;;;;;;;;6244174;23;20035;-94
2023/03/30 00:23:08;;;;;;;9.75;5.50;;;;;;;;;;6243279;23;19998;-94
2023/03/30 00:25:34;;;;;;;8.02;5.25;;;;;;;;;;6243086;23;20036;-93
2023/03/30 00:28:00;;;;;;;9.50;5.80;;;;;;;;;;6242835;23;20000;-94
2023/03/30 00:30:26;;;;;;;8.80;5.20;;;;;;;;;;6242301;23;20066;-93
2023/03/30 00:32:52;;;;;;;9.98;5.97;;;;;;;;;;6243571;23;20000;-93
2023/03/30 00:35:19;;;;;;;9.43;6.00;;;;;;;;;;6243821;23;20008;-93
2023/03/30 00:37:48;;;;;;;8.05;5.68;;;;;;;;;;6248248;23;20066;-94
2023/03/30 00:40:15;;;;;;;10.93;6.20;;;;;;;;;;6245282;23;20519;-94
2023/03/30 00:42:41;;;;;;;8.73;5.68;;;;;;;;;;6243130;23;20014;-94
2023/03/30 00:45:08;;;;;;;11.02;6.05;;;;;;;;;;6242975;23;20044;-94
2023/03/30 00:47:48;;;;;;;8.80;5.45;;;;;;;;;;6242435;23;20004;-93
2023/03/30 00:50:15;;;;;;;10.23;6.22;;;;;;;;;;6242174;23;20016;-93
2023/03/30 00:52:42;;;;;;;9.00;5.43;;;;;;;;;;6242446;23;20008;-94
2023/03/30 00:55:09;;;;;;;10.07;5.60;;;;;;;;;;6243084;23;20004;-93
2023/03/30 00:57:36;;;;;;;9.13;5.43;;;;;;;;;;6242735;23;20004;-94
2023/03/30 01:00:05;;;;;;;10.27;5.97;;;;;;;;;;6250014;23;20477;-93
2023/03/30 01:02:33;;;;;;;9.00;6.15;;;;;;;;;;6242312;23;20019;-93
2023/03/30 01:04:59;;;;;;;9.38;5.95;;;;;;;;;;6242764;23;20007;-93
2023/03/30 01:07:25;;;;;;;10.25;5.60;;;;;;;;;;6243093;23;20000;-94
2023/03/30 01:09:52;;;;;;;9.13;5.22;;;;;;;;;;6241985;23;20006;-92
2023/03/30 01:12:19;;;;;;;9.07;5.70;;;;;;;;;;6242509;23;20004;-93
2023/03/30 01:14:51;;;;;;;9.20;5.78;;;;;;;;;;6242898;23;20074;-94
2023/03/30 01:17:17;;;;;;;8.57;5.78;;;;;;;;;;6242882;23;20043;-93
2023/03/30 01:19:49;;;;;;;10.93;6.07;;;;;;;;;;6242271;23;20004;-94
2023/03/30 01:22:27;;;;;;;9.75;5.47;;;;;;;;;;6243028;23;20015;-95
2023/03/30 01:25:01;;;;;;;13.30;6.75;;;;;;;;;;6243398;23;20491;-94
2023/03/30 01:27:47;;;;;;;9.02;5.90;;;;;;;;;;6243018;23;20087;-95
2023/03/30 01:30:29;;;;;;;10.50;6.03;;;;;;;;;;6242676;23;20000;-94
2023/03/30 01:33:08;;;;;;;10.20;6.65;;;;;;;;;;6242940;23;20008;-94
2023/03/30 01:35:45;;;;;;;9.35;6.20;;;;;;;;;;6242087;23;20008;-95
2023/03/30 01:38:21;;;;;;;10.70;6.05;;;;;;;;;;6241695;23;20055;-93
2023/03/30 01:40:47;;;;;;;11.10;5.68;;;;;;;;;;6241568;23;20442;-95
2023/03/30 01:43:35;;;;;;;10.13;6.38;;;;;;;;;;6244297;23;20008;-93
2023/03/30 01:46:23;;;;;;;9.68;5.88;;;;;;;;;;6244783;23;20031;-94
2023/03/30 01:48:54;;;;;;;8.90;5.82;;;;;;;;;;6218543;23;20438;-94
2023/03/30 01:51:22;;;;;;;10.20;6.05;;;;;;;;;;6218990;23;20011;-93
2023/03/30 01:53:52;;;;;;;11.00;6.30;;;;;;;;;;6220639;23;20460;-93
2023/03/30 01:56:22;;;;;;;11.68;5.88;;;;;;;;;;6219280;23;20445;-94
2023/03/30 01:58:51;;;;;;;10.88;6.07;;;;;;;;;;6218721;23;20012;-94
2023/03/30 02:01:19;;;;;;;10.45;6.05;;;;;;;;;;6220428;23;20004;-95
2023/03/30 02:03:49;;;;;;;10.43;6.63;;;;;;;;;;6248113;23;20091;-94
2023/03/30 02:06:54;;;;;;;9.30;6.32;;;;;;;;;;6222083;23;20016;-94
2023/03/30 02:09:24;;;;;;;9.95;6.13;;;;;;;;;;6161094;23;20009;-93
2023/03/30 02:11:52;;;;;;;9.88;5.78;;;;;;;;;;6161207;23;20001;-93
2023/03/30 02:14:19;;;;;;;12.10;6.75;;;;;;;;;;6161320;23;19997;-94
2023/03/30 02:16:47;;;;;;;9.23;5.88;;;;;;;;;;6160810;23;20062;-94
2023/03/30 02:19:23;;;;;;;10.68;6.70;;;;;;;;;;6161020;23;20008;-94
2023/03/30 02:21:49;;;;;;;10.05;5.95;;;;;;;;;;6161111;23;20016;-94
2023/03/30 02:24:22;;;;;;;11.00;5.95;;;;;;;;;;6160493;23;20001;-94
2023/03/30 02:26:49;;;;;;;8.70;6.13;;;;;;;;;;6161563;23;20005;-94
2023/03/30 02:29:28;;;;;;;8.88;6.55;;;;;;;;;;6161094;23;20079;-95
2023/03/30 02:31:56;;;;;;;11.27;6.57;;;;;;;;;;6161608;23;20020;-95
2023/03/30 02:34:31;;;;;;;10.27;6.35;;;;;;;;;;6161003;23;20001;-95
2023/03/30 02:36:59;;;;;;;11.10;6.88;;;;;;;;;;6161268;23;20439;-93
2023/03/30 02:39:43;;;;;;;11.43;7.10;;;;;;;;;;6174788;23;20079;-94
2023/03/30 02:42:18;;;;;;;10.82;6.43;;;;;;;;;;6222781;23;20008;-94
2023/03/30 02:45:09;;;;;;;12.27;7.07;;;;;;;;;;6222831;23;20004;-94
2023/03/30 02:47:42;;;;;;;15.18;7.75;;;;;;;;;;6222331;23;20004;-94
2023/03/30 02:50:17;;;;;;;12.68;7.75;;;;;;;;;;6230037;23;20337;-93
2023/03/30 02:52:52;;;;;;;11.45;7.35;;;;;;;;;;6252417;23;20015;-91
2023/03/30 02:55:59;;;;;;;12.05;7.82;;;;;;;;;;6251388;23;20011;-93
2023/03/30 03:01:44;;;;;;;13.95;7.93;;;;;;;;;;6186242;23;20012;-94
2023/03/30 03:04:11;;;;;;;14.25;7.88;;;;;;;;;;6211403;23;20007;-94
2023/03/30 03:06:37;;;;;;;11.98;8.07;;;;;;;;;;6220626;23;20437;-94
2023/03/30 03:09:04;;;;;;;14.20;8.10;;;;;;;;;;6218454;23;20012;-95
2023/03/30 03:11:30;;;;;;;12.73;7.63;;;;;;;;;;6244326;23;20000;-94
2023/03/30 03:13:56;;;;;;;12.13;8.05;;;;;;;;;;6263804;23;20019;-93
2023/03/30 03:16:25;;;;;;;12.65;8.95;;;;;;;;;;6264837;23;20051;-91
2023/03/30 03:18:51;;;;;;;13.32;8.43;;;;;;;;;;6236344;23;20008;-94
2023/03/30 03:21:17;;;;;;;15.30;8.77;;;;;;;;;;6244779;23;20062;-94
2023/03/30 03:23:47;;;;;;;15.32;10.55;;;;;;;;;;6246052;23;20035;-96
2023/03/30 03:26:16;;;;;;;17.00;9.45;;;;;;;;;;6219044;23;20011;-93
2023/03/30 03:28:43;;;;;;;17.67;10.05;;;;;;;;;;6241902;23;20081;-92
2023/03/30 03:31:10;;;;;;;15.38;9.20;;;;;;;;;;6216837;23;20015;-92
2023/03/30 03:33:36;;;;;;;13.85;9.32;;;;;;;;;;6243661;23;19993;-93
2023/03/30 03:36:05;;;;;;;13.93;8.32;;;;;;;;;;6244789;23;20063;-93
2023/03/30 03:38:31;;;;;;;12.70;8.43;;;;;;;;;;6228303;23;20003;-92
2023/03/30 03:40:58;;;;;;;12.98;8.27;;;;;;;;;;6260817;23;20050;-92
2023/03/30 03:43:27;;;;;;;13.82;8.80;;;;;;;;;;6261477;23;20008;-93
2023/03/30 03:45:53;;;;;;;12.75;7.60;;;;;;;;;;6237051;23;20004;-92
2023/03/30 03:48:24;;;;;;;16.02;8.48;;;;;;;;;;6244515;23;20134;-92
2023/03/30 03:50:51;;;;;;;13.95;8.38;;;;;;;;;;6246545;23;20023;-93
2023/03/30 03:53:17;;;;;;;12.45;8.20;;;;;;;;;;6244728;23;20004;-91
2023/03/30 03:55:45;;;;;;;12.75;8.75;;;;;;;;;;6247901;23;20066;-91
2023/03/30 03:58:11;;;;;;;13.18;8.63;;;;;;;;;;6242493;23;20087;-91
2023/03/30 04:00:37;;;;;;;15.35;9.13;;;;;;;;;;6241191;23;20004;-92
2023/03/30 04:03:07;;;;;;;14.75;9.07;;;;;;;;;;6241108;23;20154;-90
2023/03/30 04:05:33;;;;;;;12.57;8.00;;;;;;;;;;6243451;23;20034;-92
2023/03/30 04:08:00;;;;;;;11.95;8.77;;;;;;;;;;6243826;23;20000;-93
2023/03/30 04:10:27;;;;;;;13.20;8.40;;;;;;;;;;6242883;23;20012;-93
2023/03/30 04:12:59;;;;;;;13.45;8.95;;;;;;;;;;6242981;23;19996;-94
2023/03/30 04:15:28;;;;;;;13.65;8.30;;;;;;;;;;6244707;23;20563;-95
2023/03/30 14:32:12;;;;;;;15.85;11.98;;;;;;;;;;6255927;22;20087;-93
2023/03/30 14:34:48;;;;;;;21.08;14.32;;;;;;;;;;6251237;22;20523;-96
2023/03/30 16:44:47;;;;;;;20.55;14.10;;;;;;;;;;6239863;22;20028;-95
2023/03/30 16:47:14;;;;;;;15.43;12.35;;;;;;;;;;6217952;23;20040;-95
2023/03/30 16:49:40;;;;;;;17.13;12.95;;;;;;;;;;6217180;23;20206;-95
2023/03/30 16:52:09;;;;;;;17.90;14.43;;;;;;;;;;6216710;23;20084;-96
2023/03/30 16:54:35;;;;;;;17.42;14.38;;;;;;;;;;6243209;23;20024;-96
2023/03/30 16:57:01;;;;;;;14.43;12.65;;;;;;;;;;6215202;23;20000;-95
2023/03/30 16:59:29;;;;;;;17.63;12.75;;;;;;;;;;6216838;23;20054;-94
2023/03/30 17:01:58;;;;;;;18.42;13.07;;;;;;;;;;6217952;23;20011;-95
2023/03/30 17:04:25;;;;;;;15.10;12.13;;;;;;;;;;6215923;23;20004;-95
2023/03/30 17:06:53;;;;;;;17.95;12.88;;;;;;;;;;6217203;23;20007;-95
2023/03/30 17:09:19;;;;;;;15.65;12.07;;;;;;;;;;6219102;23;20004;-94
2023/03/30 17:11:51;;;;;;;19.33;13.38;;;;;;;;;;6217470;23;20585;-96
2023/03/30 17:14:28;;;;;;;19.40;13.60;;;;;;;;;;6218782;23;20028;-94
2023/03/30 17:16:55;;;;;;;22.10;13.43;;;;;;;;;;6223152;23;20023;-95
2023/03/30 17:19:21;;;;;;;17.38;13.02;;;;;;;;;;6219788;23;19996;-95
2023/03/30 17:21:47;;;;;;;20.42;15.10;;;;;;;;;;6219811;23;20016;-94
2023/03/30 17:24:16;;;;;;;19.05;14.38;;;;;;;;;;6221152;23;20011;-93
2023/03/30 17:26:45;;;;;;;23.23;15.93;;;;;;;;;;6220591;23;20453;-96
2023/03/30 17:29:11;;;;;;;20.65;14.23;;;;;;;;;;6228727;23;19996;-95
2023/03/30 17:31:37;;;;;;;23.05;16.95;;;;;;;;;;6221607;23;20494;-95
2023/03/30 17:34:05;;;;;;;23.15;17.90;;;;;;;;;;6222286;23;20004;-96
2023/03/30 17:36:31;;;;;;;25.65;20.02;;;;;;;;;;6221027;23;20121;-96
2023/03/30 17:39:03;;;;;;;23.45;18.92;;;;;;;;;;6219406;23;20422;-93
2023/03/30 17:41:37;;;;;;;24.92;19.33;;;;;;;;;;6249068;23;20333;-96
2023/03/30 17:44:03;;;;;;;23.42;18.73;;;;;;;;;;6218659;23;20008;-94
2023/03/30 17:46:29;;;;;;;21.17;16.80;;;;;;;;;;6214041;23;20024;-93
2023/03/30 17:48:57;;;;;;;21.73;16.23;;;;;;;;;;6213179;23;20335;-94
2023/03/30 17:51:23;;;;;;;23.42;17.10;;;;;;;;;;6214502;23;20005;-92
2023/03/30 17:53:55;;;;;;;29.10;20.85;;;;;;;;;;6210992;23;20008;-94
2023/03/30 17:56:21;;;;;;;12.40;9.82;;;;;;;;;;6212722;23;20055;-93
2023/03/30 17:58:51;;;;;;;9.50;6.13;;;;;;;;;;6212240;23;20005;-91
2023/03/30 18:04:00;;;;;;;8.38;5.32;;;;;;;;;;6218773;23;20043;-94
2023/03/30 18:06:26;;;;;;;8.25;4.80;;;;;;;;;;6214632;23;20085;-91
2023/03/30 18:08:52;;;;;;;7.95;4.97;;;;;;;;;;6242356;23;20299;-91
2023/03/30 18:11:18;;;;;;;9.80;6.45;;;;;;;;;;6216573;23;20004;-94
2023/03/30 18:13:44;;;;;;;7.55;4.28;;;;;;;;;;6219446;23;20054;-92
2023/03/30 18:16:16;;;;;;;8.40;4.50;;;;;;;;;;6219806;23;20016;-92
2023/03/30 18:18:42;;;;;;;7.45;3.90;;;;;;;;;;6244737;23;20000;-96
2023/03/30 18:21:11;;;;;;;7.68;3.85;;;;;;;;;;6217837;23;19996;-94
2023/03/30 18:26:13;;;;;;;8.43;4.22;;;;;;;;;;6240784;22;20412;-91
2023/03/30 18:28:42;;;;;;;7.82;4.20;;;;;;;;;;6220284;23;20098;-93
2023/03/30 18:31:08;;;;;;;9.05;4.47;;;;;;;;;;6218501;23;20008;-94
2023/03/30 18:33:35;;;;;;;8.02;3.80;;;;;;;;;;6223364;23;20008;-94
2023/03/30 18:36:31;;;;;;;7.47;3.80;;;;;;;;;;6196747;23;20366;-96
